createdAt,value
2018-05-26T00:01:51.170Z,3.60
2018-05-26T00:04:19.542Z,4.13
2018-05-26T00:06:47.897Z,3.13
2018-05-26T00:09:16.283Z,3.00
2018-05-26T00:11:45.391Z,4.27
2018-05-26T00:14:14.533Z,3.93
2018-05-26T00:16:42.934Z,3.43
2018-05-26T00:19:11.314Z,3.50
2018-05-26T00:21:39.725Z,3.30
2018-05-26T00:24:08.873Z,3.27
2018-05-26T00:26:37.288Z,3.93
2018-05-26T00:29:06.416Z,3.90
2018-05-26T00:31:34.786Z,4.33
2018-05-26T00:34:03.163Z,3.10
2018-05-26T00:36:31.590Z,3.13
2018-05-26T00:39:00.753Z,3.20
2018-05-26T00:41:29.138Z,3.43
2018-05-26T00:43:57.514Z,4.20
2018-05-26T00:46:25.956Z,3.47
2018-05-26T00:48:55.087Z,3.40
2018-05-26T00:51:23.450Z,4.13
2018-05-26T00:53:51.831Z,2.80
2018-05-26T00:56:20.317Z,4.47
2018-05-26T00:58:48.684Z,4.80
2018-05-26T01:01:17.089Z,3.80
2018-05-26T01:03:45.423Z,3.80
2018-05-26T01:06:14.576Z,3.50
2018-05-26T01:08:43.002Z,3.47
2018-05-26T01:11:11.392Z,3.50
2018-05-26T01:13:39.759Z,3.63
2018-05-26T01:16:08.857Z,4.20
2018-05-26T01:18:37.972Z,3.70
2018-05-26T01:21:06.332Z,3.47
2018-05-26T01:23:35.437Z,3.37
2018-05-26T01:26:04.540Z,3.50
2018-05-26T01:28:32.904Z,3.90
2018-05-26T01:31:02.050Z,3.57
2018-05-26T01:33:30.449Z,3.47
2018-05-26T01:35:59.558Z,3.70
2018-05-26T01:38:27.958Z,4.37
2018-05-26T01:40:57.168Z,3.83
2018-05-26T01:43:25.550Z,3.23
2018-05-26T01:45:53.920Z,3.23
2018-05-26T01:48:22.284Z,4.00
2018-05-26T01:50:51.472Z,3.67
2018-05-26T01:53:19.880Z,3.47
2018-05-26T01:55:48.223Z,4.13
2018-05-26T01:58:16.592Z,3.80
2018-05-26T02:00:45.017Z,3.57
2018-05-26T02:03:13.397Z,3.70
2018-05-26T02:05:41.868Z,3.23
2018-05-26T02:08:10.256Z,3.60
2018-05-26T02:10:38.595Z,4.03
2018-05-26T02:13:06.971Z,3.90
2018-05-26T02:15:35.393Z,3.67
2018-05-26T02:18:03.817Z,3.57
2018-05-26T02:20:32.254Z,4.40
2018-05-26T02:23:00.625Z,4.10
2018-05-26T02:25:28.990Z,3.90
2018-05-26T02:27:58.226Z,3.53
2018-05-26T02:30:26.676Z,3.83
2018-05-26T02:32:55.902Z,4.43
2018-05-26T02:35:24.432Z,3.90
2018-05-26T02:37:53.569Z,3.50
2018-05-26T02:40:22.030Z,4.23
2018-05-26T02:42:51.218Z,5.13
2018-05-26T02:45:20.335Z,3.90
2018-05-26T02:47:48.705Z,3.70
2018-05-26T02:50:17.091Z,4.40
2018-05-26T02:52:45.465Z,4.10
2018-05-26T02:55:13.835Z,3.87
2018-05-26T02:57:42.970Z,4.13
2018-05-26T03:00:11.336Z,4.10
2018-05-26T03:02:39.710Z,4.30
2018-05-26T03:05:13.706Z,4.23
2018-05-26T03:07:47.740Z,4.30
2018-05-26T03:10:21.667Z,4.67
2018-05-26T03:12:55.732Z,4.10
2018-05-26T03:15:24.204Z,3.97
2018-05-26T03:17:53.634Z,4.03
2018-05-26T03:20:22.086Z,3.30
2018-05-26T03:22:51.227Z,4.00
2018-05-26T03:25:19.592Z,3.90
2018-05-26T03:27:47.952Z,4.83
2018-05-26T03:30:16.288Z,4.53
2018-05-26T03:32:44.733Z,4.30
2018-05-26T03:35:13.115Z,4.33
2018-05-26T03:37:41.472Z,4.20
2018-05-26T03:40:09.942Z,4.67
2018-05-26T03:42:39.043Z,4.70
2018-05-26T03:45:08.178Z,4.53
2018-05-26T03:47:36.612Z,4.53
2018-05-26T03:50:05.796Z,4.03
2018-05-26T03:52:34.180Z,3.93
2018-05-26T03:55:38.801Z,4.30
2018-05-26T03:58:25.747Z,4.37
2018-05-26T04:00:54.112Z,4.47
2018-05-26T04:03:22.461Z,4.10
2018-05-26T04:05:52.031Z,4.80
2018-05-26T04:08:21.115Z,5.17
2018-05-26T04:10:49.486Z,5.33
2018-05-26T04:13:17.865Z,4.33
2018-05-26T04:15:46.218Z,5.30
2018-05-26T04:18:15.442Z,5.13
2018-05-26T04:20:43.825Z,5.40
2018-05-26T04:23:12.263Z,4.60
2018-05-26T04:25:40.616Z,5.20
2018-05-26T04:28:09.098Z,4.40
2018-05-26T04:30:37.450Z,4.23
2018-05-26T04:33:05.932Z,5.47
2018-05-26T04:35:34.285Z,4.60
2018-05-26T04:38:02.774Z,4.83
2018-05-26T04:40:31.144Z,4.90
2018-05-26T04:42:59.509Z,4.83
2018-05-26T04:45:28.027Z,4.37
2018-05-26T04:47:56.402Z,4.73
2018-05-26T04:50:24.773Z,4.40
2018-05-26T04:52:53.125Z,4.40
2018-05-26T04:55:22.228Z,5.40
2018-05-26T04:57:50.733Z,5.60
2018-05-26T05:00:19.130Z,5.37
2018-05-26T05:02:47.500Z,5.60
2018-05-26T05:05:15.935Z,5.30
2018-05-26T05:07:44.289Z,5.60
2018-05-26T05:10:12.656Z,5.47
2018-05-26T05:12:41.093Z,5.60
2018-05-26T05:15:09.431Z,5.00
2018-05-26T05:17:37.827Z,6.30
2018-05-26T05:20:06.952Z,5.00
2018-05-26T05:22:35.311Z,6.23
2018-05-26T05:25:04.459Z,5.53
2018-05-26T05:27:32.833Z,5.43
2018-05-26T05:30:01.211Z,5.07
2018-05-26T05:32:29.591Z,6.53
2018-05-26T05:34:58.037Z,5.23
2018-05-26T05:37:26.465Z,6.30
2018-05-26T05:39:54.828Z,5.80
2018-05-26T05:42:23.237Z,6.10
2018-05-26T05:44:51.618Z,4.93
2018-05-26T05:47:20.750Z,4.73
2018-05-26T05:49:49.171Z,4.90
2018-05-26T05:52:17.548Z,4.77
2018-05-26T05:54:45.891Z,5.10
2018-05-26T05:57:14.254Z,4.10
2018-05-26T05:59:43.410Z,4.10
2018-05-26T06:02:11.907Z,4.10
2018-05-26T06:04:40.342Z,4.07
2018-05-26T06:07:08.721Z,3.93
2018-05-26T06:09:37.535Z,3.30
2018-05-26T06:12:05.881Z,3.80
2018-05-26T06:14:34.300Z,3.13
2018-05-26T06:17:02.685Z,3.47
2018-05-26T06:19:31.841Z,3.60
2018-05-26T06:22:00.220Z,2.73
2018-05-26T06:24:28.561Z,3.03
2018-05-26T06:26:57.768Z,3.50
2018-05-26T06:29:26.111Z,3.53
2018-05-26T06:31:54.482Z,4.10
2018-05-26T06:34:22.877Z,4.10
2018-05-26T06:36:52.045Z,3.93
2018-05-26T06:39:20.476Z,5.37
2018-05-26T06:41:48.839Z,5.90
2018-05-26T06:44:18.033Z,6.67
2018-05-26T06:46:46.391Z,5.63
2018-05-26T06:49:14.960Z,6.60
2018-05-26T06:51:43.388Z,6.20
2018-05-26T06:54:12.081Z,6.40
2018-05-26T06:56:40.487Z,7.10
2018-05-26T06:59:08.842Z,6.40
2018-05-26T07:01:37.209Z,7.30
2018-05-26T07:04:06.450Z,6.00
2018-05-26T07:06:34.900Z,7.10
2018-05-26T07:09:03.231Z,6.07
2018-05-26T07:11:31.646Z,7.50
2018-05-26T07:13:59.992Z,6.00
2018-05-26T07:16:28.357Z,7.97
2018-05-26T07:18:56.792Z,7.10
2018-05-26T07:21:25.171Z,7.30
2018-05-26T07:23:53.536Z,7.53
2018-05-26T07:26:22.721Z,7.67
2018-05-26T07:28:51.836Z,6.70
2018-05-26T07:31:20.229Z,7.23
2018-05-26T07:33:48.624Z,7.17
2018-05-26T07:36:16.978Z,6.77
2018-05-26T07:38:45.473Z,6.60
2018-05-26T07:41:13.945Z,6.43
2018-05-26T07:43:42.372Z,6.63
2018-05-26T07:46:10.751Z,7.10
2018-05-26T07:48:40.668Z,7.40
2018-05-26T07:51:09.058Z,6.80
2018-05-26T07:53:37.432Z,6.23
2018-05-26T07:56:05.775Z,7.10
2018-05-26T07:58:34.235Z,6.63
2018-05-26T08:01:02.579Z,6.93
2018-05-26T08:03:31.712Z,6.20
2018-05-26T08:06:00.083Z,6.10
2018-05-26T08:08:28.430Z,6.27
2018-05-26T08:10:56.828Z,6.20
2018-05-26T08:13:26.016Z,5.40
2018-05-26T08:15:55.140Z,6.60
2018-05-26T08:18:23.620Z,5.87
2018-05-26T08:20:52.002Z,5.90
2018-05-26T08:23:20.364Z,5.60
2018-05-26T08:25:48.768Z,5.80
2018-05-26T08:28:17.161Z,5.63
2018-05-26T08:30:45.537Z,5.90
2018-05-26T08:33:13.960Z,5.37
2018-05-26T08:35:43.092Z,5.00
2018-05-26T08:38:11.465Z,5.47
2018-05-26T08:40:39.858Z,6.00
2018-05-26T08:43:08.210Z,5.83
2018-05-26T08:45:37.355Z,4.97
2018-05-26T08:48:05.730Z,4.63
2018-05-26T08:50:34.116Z,3.10
2018-05-26T08:53:02.513Z,2.50
2018-05-26T08:55:30.914Z,2.60
2018-05-26T08:58:00.133Z,2.50
2018-05-26T09:00:28.547Z,2.27
2018-05-26T09:02:56.932Z,1.80
2018-05-26T09:05:25.269Z,2.00
2018-05-26T09:07:53.651Z,2.00
2018-05-26T09:10:21.979Z,2.10
2018-05-26T09:12:50.341Z,1.77
2018-05-26T09:15:18.724Z,2.10
2018-05-26T09:17:47.104Z,1.83
2018-05-26T09:20:15.495Z,1.93
2018-05-26T09:22:43.878Z,1.50
2018-05-26T09:25:12.260Z,1.97
2018-05-26T09:27:41.426Z,1.77
2018-05-26T09:30:09.815Z,2.43
2018-05-26T09:32:38.222Z,1.60
2018-05-26T09:35:07.379Z,1.83
2018-05-26T09:37:35.731Z,2.10
2018-05-26T09:40:04.127Z,1.80
2018-05-26T09:42:32.472Z,1.70
2018-05-26T09:45:00.811Z,1.70
2018-05-26T09:47:29.152Z,1.40
2018-05-26T09:49:57.546Z,1.30
2018-05-26T09:52:25.954Z,1.30
2018-05-26T09:54:54.293Z,1.63
2018-05-26T09:57:22.666Z,1.13
2018-05-26T09:59:51.054Z,1.70
2018-05-26T10:02:19.473Z,1.70
2018-05-26T10:04:48.621Z,2.17
2018-05-26T10:07:16.988Z,1.80
2018-05-26T10:09:45.343Z,2.03
2018-05-26T10:12:14.443Z,1.67
2018-05-26T10:14:43.563Z,1.50
2018-05-26T10:17:11.906Z,2.03
2018-05-26T10:19:41.087Z,2.60
2018-05-26T10:22:09.456Z,2.93
2018-05-26T10:24:37.820Z,3.10
2018-05-26T10:27:06.183Z,2.50
2018-05-26T10:29:34.532Z,3.13
2018-05-26T10:32:02.911Z,3.70
2018-05-26T10:34:31.261Z,4.03
2018-05-26T10:36:59.646Z,4.50
2018-05-26T10:39:28.803Z,3.17
2018-05-26T10:41:57.195Z,3.57
2018-05-26T10:44:25.530Z,3.50
2018-05-26T10:46:53.926Z,3.57
2018-05-26T10:49:22.281Z,3.30
2018-05-26T10:51:50.628Z,2.97
2018-05-26T10:54:19.791Z,3.70
2018-05-26T10:56:48.153Z,3.17
2018-05-26T10:59:16.549Z,3.03
2018-05-26T11:01:44.931Z,3.50
2018-05-26T11:04:13.283Z,3.30
2018-05-26T11:06:47.727Z,3.53
2018-05-26T11:09:16.107Z,3.30
2018-05-26T11:11:44.495Z,2.97
2018-05-26T11:14:12.875Z,2.97
2018-05-26T11:16:41.267Z,3.43
2018-05-26T11:19:09.671Z,3.17
2018-05-26T11:21:38.811Z,3.30
2018-05-26T11:24:07.338Z,2.83
2018-05-26T11:26:35.655Z,2.70
2018-05-26T11:29:03.990Z,2.80
2018-05-26T11:31:32.360Z,3.17
2018-05-26T11:34:00.763Z,2.47
2018-05-26T11:36:29.948Z,3.10
2018-05-26T11:38:59.171Z,3.70
2018-05-26T11:41:27.629Z,3.17
2018-05-26T11:43:56.817Z,3.27
2018-05-26T11:46:26.030Z,3.80
2018-05-26T11:48:55.168Z,3.20
2018-05-26T11:51:23.628Z,3.17
2018-05-26T11:53:52.018Z,3.37
2018-05-26T11:56:20.493Z,3.27
2018-05-26T11:58:48.892Z,3.13
2018-05-26T12:01:17.292Z,3.10
2018-05-26T12:03:45.677Z,2.90
2018-05-26T12:06:14.108Z,3.07
2018-05-26T12:08:42.475Z,3.20
2018-05-26T12:11:10.968Z,3.10
2018-05-26T12:13:39.457Z,3.43
2018-05-26T12:16:07.922Z,3.07
2018-05-26T12:18:36.284Z,2.77
2018-05-26T12:21:05.469Z,2.90
2018-05-26T12:23:34.676Z,2.60
2018-05-26T12:26:03.774Z,2.23
2018-05-26T12:28:32.919Z,2.90
2018-05-26T12:31:01.300Z,2.60
2018-05-26T12:33:29.747Z,2.90
2018-05-26T12:35:58.141Z,2.70
2018-05-26T12:38:26.537Z,2.90
2018-05-26T12:40:55.006Z,2.70
2018-05-26T12:43:23.539Z,2.60
2018-05-26T12:45:52.687Z,3.13
2018-05-26T12:48:21.075Z,2.37
2018-05-26T12:50:49.447Z,2.63
2018-05-26T12:53:17.817Z,2.70
2018-05-26T12:55:46.195Z,2.43
2018-05-26T13:01:24.424Z,3.00
2018-05-26T13:03:52.756Z,2.97
2018-05-26T13:06:21.134Z,2.43
2018-05-26T13:08:49.529Z,2.90
2018-05-26T13:11:18.670Z,3.10
2018-05-26T13:13:47.073Z,3.27
2018-05-26T13:16:15.514Z,2.70
2018-05-26T13:18:43.981Z,3.17
2018-05-26T13:21:12.381Z,3.33
2018-05-26T13:23:40.728Z,2.80
2018-05-26T13:26:09.139Z,2.90
2018-05-26T13:28:37.518Z,2.90
2018-05-26T13:31:05.875Z,2.80
2018-05-26T13:33:34.244Z,2.80
2018-05-26T13:36:02.658Z,2.30
2018-05-26T13:38:31.012Z,2.70
2018-05-26T13:40:59.360Z,2.23
2018-05-26T13:43:28.596Z,2.50
2018-05-26T13:45:56.939Z,2.87
2018-05-26T13:48:26.106Z,2.50
2018-05-26T13:50:54.500Z,2.20
2018-05-26T13:56:20.758Z,2.00
2018-05-26T13:58:49.905Z,2.10
2018-05-26T14:01:18.293Z,2.13
2018-05-26T14:03:46.654Z,2.20
2018-05-26T14:06:15.026Z,2.30
2018-05-26T14:08:43.400Z,1.97
2018-05-26T14:11:11.756Z,2.23
2018-05-26T14:13:40.939Z,2.23
2018-05-26T14:16:09.344Z,2.30
2018-05-26T14:18:37.731Z,2.53
2018-05-26T14:21:06.127Z,2.77
2018-05-26T14:23:34.517Z,1.93
2018-05-26T14:26:02.968Z,2.70
2018-05-26T14:28:31.316Z,2.40
2018-05-26T14:30:59.688Z,1.87
2018-05-26T14:33:28.350Z,2.10
2018-05-26T14:35:56.719Z,2.40
2018-05-26T14:38:25.112Z,2.43
2018-05-26T14:40:53.528Z,2.30
2018-05-26T14:43:22.658Z,2.70
2018-05-26T14:45:51.128Z,2.00
2018-05-26T14:48:19.512Z,2.37
2018-05-26T14:50:47.992Z,2.23
2018-05-26T14:53:16.378Z,2.10
2018-05-26T14:55:44.776Z,3.40
2018-05-26T14:58:13.146Z,2.93
2018-05-26T15:00:41.504Z,2.13
2018-05-26T15:03:09.888Z,2.60
2018-05-26T15:05:38.693Z,3.77
2018-05-26T15:08:07.833Z,2.67
2018-05-26T15:10:36.997Z,2.63
2018-05-26T15:13:05.538Z,3.70
2018-05-26T15:15:33.789Z,2.40
2018-05-26T15:18:02.917Z,2.20
2018-05-26T15:20:31.296Z,2.40
2018-05-26T15:22:59.639Z,2.47
2018-05-26T15:25:28.727Z,2.53
2018-05-26T15:27:57.079Z,2.67
2018-05-26T15:33:22.376Z,2.43
2018-05-26T15:35:50.734Z,3.20
2018-05-26T15:38:19.112Z,2.47
2018-05-26T15:40:47.511Z,2.40
2018-05-26T15:43:15.893Z,2.77
2018-05-26T15:45:44.340Z,2.40
2018-05-26T15:48:13.472Z,2.33
2018-05-26T15:50:41.816Z,2.70
2018-05-26T15:53:11.042Z,2.60
2018-05-26T15:55:39.542Z,2.70
2018-05-26T15:58:07.931Z,2.90
2018-05-26T16:00:36.344Z,2.60
2018-05-26T16:03:04.684Z,2.80
2018-05-26T16:05:33.044Z,2.70
2018-05-26T16:08:01.393Z,2.83
2018-05-26T16:10:29.793Z,2.40
2018-05-26T16:12:58.182Z,2.33
2018-05-26T16:15:26.545Z,3.00
2018-05-26T16:17:54.888Z,2.90
2018-05-26T16:20:24.122Z,2.67
2018-05-26T16:22:52.476Z,2.50
2018-05-26T16:25:21.609Z,2.60
2018-05-26T16:27:50.017Z,2.57
2018-05-26T16:30:18.448Z,2.37
2018-05-26T16:32:46.817Z,2.73
2018-05-26T16:35:15.976Z,3.30
2018-05-26T16:37:44.344Z,2.87
2018-05-26T16:40:12.824Z,3.67
2018-05-26T16:42:41.226Z,3.73
2018-05-26T16:45:09.574Z,3.63
2018-05-26T16:47:37.951Z,3.70
2018-05-26T16:50:06.344Z,2.80
2018-05-26T16:52:34.749Z,2.87
2018-05-26T16:55:03.144Z,3.13
2018-05-26T16:57:31.504Z,3.13
2018-05-26T16:59:59.968Z,2.40
2018-05-26T17:02:28.344Z,3.90
2018-05-26T17:04:56.718Z,2.97
2018-05-26T17:07:25.088Z,2.67
2018-05-26T17:09:53.541Z,2.83
2018-05-26T17:12:21.916Z,3.30
2018-05-26T17:14:50.249Z,2.80
2018-05-26T17:17:18.686Z,2.77
2018-05-26T17:19:47.125Z,2.60
2018-05-26T17:22:16.273Z,2.70
2018-05-26T17:24:44.606Z,2.90
2018-05-26T17:27:13.757Z,2.70
2018-05-26T17:29:42.147Z,2.70
2018-05-26T17:32:10.590Z,2.67
2018-05-26T17:34:38.973Z,3.50
2018-05-26T17:37:07.311Z,2.53
2018-05-26T17:39:36.511Z,2.77
2018-05-26T17:42:05.647Z,2.93
2018-05-26T17:44:34.091Z,3.00
2018-05-26T17:47:03.212Z,3.30
2018-05-26T17:49:31.614Z,3.57
2018-05-26T17:51:59.957Z,3.33
2018-05-26T17:54:28.297Z,3.80
2018-05-26T17:56:56.651Z,3.10
2018-05-26T17:59:25.039Z,3.27
2018-05-26T18:01:53.457Z,3.67
2018-05-26T18:04:22.571Z,2.87
2018-05-26T18:06:50.962Z,3.43
2018-05-26T18:09:19.317Z,3.37
2018-05-26T18:11:48.458Z,3.20
2018-05-26T18:14:16.831Z,2.80
2018-05-26T18:16:45.215Z,2.93
2018-05-26T18:19:13.611Z,2.60
2018-05-26T18:21:41.953Z,3.20
2018-05-26T18:24:10.333Z,2.87
2018-05-26T18:26:38.712Z,3.10
2018-05-26T18:29:07.068Z,2.90
2018-05-26T18:31:35.403Z,2.83
2018-05-26T18:34:03.804Z,3.50
2018-05-26T18:36:32.948Z,3.67
2018-05-26T18:39:01.432Z,4.00
2018-05-26T18:41:29.772Z,4.43
2018-05-26T18:43:58.965Z,4.83
2018-05-26T18:46:28.183Z,3.23
2018-05-26T18:48:56.544Z,4.03
2018-05-26T18:51:25.709Z,4.07
2018-05-26T18:53:54.145Z,3.70
2018-05-26T18:56:22.554Z,3.67
2018-05-26T18:58:50.938Z,4.30
2018-05-26T19:01:19.385Z,3.60
2018-05-26T19:03:47.740Z,3.97
2018-05-26T19:06:16.969Z,4.00
2018-05-26T19:08:45.320Z,3.80
2018-05-26T19:11:13.814Z,5.73
2018-05-26T19:13:42.170Z,4.30
2018-05-26T19:16:11.328Z,4.37
2018-05-26T19:18:39.772Z,4.97
2018-05-26T19:21:08.187Z,4.07
2018-05-26T19:23:36.616Z,4.60
2018-05-26T19:26:04.980Z,4.03
2018-05-26T19:28:34.204Z,4.73
2018-05-26T19:31:02.656Z,4.80
2018-05-26T19:33:31.761Z,4.40
2018-05-26T19:36:00.904Z,5.30
2018-05-26T19:38:29.268Z,5.20
2018-05-26T19:40:57.653Z,5.40
2018-05-26T19:43:26.105Z,5.50
2018-05-26T19:45:54.560Z,6.67
2018-05-26T19:48:23.681Z,6.23
2018-05-26T19:50:52.061Z,5.90
2018-05-26T19:53:20.445Z,5.30
2018-05-26T19:55:48.840Z,4.83
2018-05-26T19:58:17.245Z,5.13
2018-05-26T20:00:45.642Z,5.27
2018-05-26T20:03:14.022Z,4.63
2018-05-26T20:05:42.399Z,5.07
2018-05-26T20:08:10.764Z,4.90
2018-05-26T20:10:39.137Z,4.80
2018-05-26T20:13:07.572Z,4.60
2018-05-26T20:15:36.033Z,5.67
2018-05-26T20:18:05.183Z,4.60
2018-05-26T20:20:33.558Z,4.70
2018-05-26T20:23:01.970Z,6.40
2018-05-26T20:25:30.369Z,5.23
2018-05-26T20:27:59.540Z,4.47
2018-05-26T20:30:27.884Z,4.50
2018-05-26T20:32:56.320Z,4.50
2018-05-26T20:35:25.512Z,4.77
2018-05-26T20:37:53.877Z,4.57
2018-05-26T20:40:22.238Z,5.23
2018-05-26T20:42:50.629Z,5.80
2018-05-26T20:45:18.973Z,4.63
2018-05-26T20:47:47.352Z,4.70
2018-05-26T20:50:15.687Z,5.07
2018-05-26T20:52:44.803Z,5.20
2018-05-26T20:55:13.167Z,4.33
2018-05-26T20:57:41.549Z,4.93
2018-05-26T21:00:09.916Z,4.93
2018-05-26T21:02:39.078Z,4.83
2018-05-26T21:05:07.439Z,4.73
2018-05-26T21:07:35.826Z,6.67
2018-05-26T21:10:04.191Z,4.93
2018-05-26T21:12:32.652Z,5.37
2018-05-26T21:15:01.025Z,5.93
2018-05-26T21:17:29.424Z,4.60
2018-05-26T21:19:57.871Z,4.80
2018-05-26T21:22:26.977Z,5.47
2018-05-26T21:24:57.395Z,5.50
2018-05-26T21:27:26.562Z,5.70
2018-05-26T21:29:54.930Z,4.60
2018-05-26T21:32:23.288Z,4.80
2018-05-26T21:34:51.763Z,4.67
2018-05-26T21:37:20.146Z,4.63
2018-05-26T21:39:48.584Z,4.83
2018-05-26T21:42:17.689Z,5.80
2018-05-26T21:44:46.832Z,7.00
2018-05-26T21:47:15.329Z,5.83
2018-05-26T21:49:43.760Z,5.73
2018-05-26T21:52:12.104Z,6.10
2018-05-26T21:54:40.488Z,6.30
2018-05-26T21:57:09.646Z,5.90
2018-05-26T21:59:37.999Z,6.40
2018-05-26T22:02:06.354Z,6.17
2018-05-26T22:04:35.513Z,6.00
2018-05-26T22:07:03.960Z,5.97
2018-05-26T22:09:32.338Z,5.37
2018-05-26T22:12:00.706Z,6.00
2018-05-26T22:14:29.085Z,5.70
2018-05-26T22:16:57.428Z,6.20
2018-05-26T22:19:26.638Z,6.50
2018-05-26T22:21:55.862Z,5.70
2018-05-26T22:24:24.305Z,5.23
2018-05-26T22:26:53.512Z,6.40
2018-05-26T22:29:22.652Z,5.80
2018-05-26T22:31:51.040Z,6.27
2018-05-26T22:34:19.499Z,5.50
2018-05-26T22:36:47.848Z,5.97
2018-05-26T22:39:16.995Z,6.07
2018-05-26T22:41:45.387Z,5.30
2018-05-26T22:44:13.789Z,5.67
2018-05-26T22:46:42.913Z,5.70
2018-05-26T22:49:11.252Z,5.97
2018-05-26T22:51:39.675Z,5.80
2018-05-26T22:54:08.043Z,5.87
2018-05-26T22:56:36.426Z,5.57
2018-05-26T22:59:04.797Z,5.73
2018-05-26T23:01:33.900Z,5.63
2018-05-26T23:04:02.292Z,5.50
2018-05-26T23:06:30.642Z,6.43
2018-05-26T23:08:59.868Z,5.50
2018-05-26T23:11:28.259Z,5.97
2018-05-26T23:13:56.717Z,6.10
2018-05-26T23:16:25.077Z,6.30
2018-05-26T23:18:54.216Z,6.17
2018-05-26T23:21:22.605Z,6.10
2018-05-26T23:23:51.067Z,6.37
2018-05-26T23:26:19.461Z,6.40
2018-05-26T23:28:47.835Z,5.47
2018-05-26T23:31:16.302Z,5.40
2018-05-26T23:33:44.777Z,6.60
2018-05-26T23:36:13.258Z,5.70
2018-05-26T23:38:41.737Z,6.00
2018-05-26T23:41:10.096Z,5.90
2018-05-26T23:43:39.224Z,5.93
2018-05-26T23:46:07.636Z,5.73
2018-05-26T23:48:36.063Z,6.50
2018-05-26T23:51:05.369Z,5.93
2018-05-26T23:53:33.724Z,6.50
2018-05-26T23:56:02.862Z,6.13
2018-05-26T23:58:31.220Z,5.53
